Time;durP1;ratioP1;P1;durP2;ratioP2;P2;SDS_P1;SDS_P2;PMS_P1;PMS_P2;Temp;Humidity;BMP_temperature;BMP_pressure;BME280_temperature;BME280_humidity;BME280_pressure;Samples;Min_cycle;Max_cycle;Signal;HPM_P1;HPM_P2
2021/04/04 00:00:02;;;;;;;22.67;4.58;;;10.90;90.70;;;;;;1880203;74;21054;-69
2021/04/04 00:02:29;;;;;;;24.32;4.60;;;10.80;91.00;;;;;;1872425;74;21186;-69
2021/04/04 00:04:57;;;;;;;19.95;4.70;;;10.80;91.00;;;;;;1882371;75;21120;-69
2021/04/04 00:07:24;;;;;;;18.42;4.70;;;10.80;91.10;;;;;;1870360;76;21271;-69
2021/04/04 00:09:52;;;;;;;20.77;4.55;;;10.90;91.00;;;;;;1876251;75;21438;-69
2021/04/04 00:12:19;;;;;;;24.87;5.00;;;10.90;91.00;;;;;;1874830;75;21608;-69
2021/04/04 00:14:47;;;;;;;25.57;5.10;;;10.90;90.80;;;;;;1876352;76;21109;-69
2021/04/04 00:17:15;;;;;;;26.68;5.35;;;10.80;90.90;;;;;;1873466;74;21080;-69
2021/04/04 00:19:42;;;;;;;19.77;4.78;;;10.80;91.10;;;;;;1872157;76;21472;-69
2021/04/04 00:22:13;;;;;;;24.70;4.87;;;10.80;91.10;;;;;;1870870;76;21089;-69
2021/04/04 00:24:41;;;;;;;26.55;5.42;;;10.70;90.90;;;;;;1875204;76;21542;-69
2021/04/04 00:27:08;;;;;;;20.40;4.55;;;10.70;91.20;;;;;;1877185;74;21049;-69
2021/04/04 00:29:35;;;;;;;29.50;5.10;;;10.70;91.10;;;;;;1873571;76;21078;-69
2021/04/04 00:32:03;;;;;;;27.20;5.40;;;10.70;91.20;;;;;;1881636;75;21066;-69
2021/04/04 00:34:31;;;;;;;19.12;4.70;;;10.80;90.90;;;;;;1870740;76;21147;-69
2021/04/04 00:36:58;;;;;;;21.35;4.45;;;10.80;90.80;;;;;;1873623;76;21501;-69
2021/04/04 00:39:28;;;;;;;24.00;5.37;;;10.80;91.00;;;;;;1868409;75;21307;-69
2021/04/04 00:41:55;;;;;;;26.48;5.28;;;10.70;91.40;;;;;;1874300;76;21145;-68
2021/04/04 00:44:22;;;;;;;24.30;4.90;;;10.70;91.30;;;;;;1872078;76;21343;-69
2021/04/04 00:46:50;;;;;;;22.95;4.92;;;10.70;91.30;;;;;;1870393;76;21159;-69
2021/04/04 00:49:17;;;;;;;25.43;5.60;;;10.70;91.50;;;;;;1869407;76;21109;-69
2021/04/04 00:51:45;;;;;;;27.90;5.15;;;10.70;91.60;;;;;;1879962;75;21089;-69
2021/04/04 00:54:12;;;;;;;27.22;5.37;;;10.70;91.90;;;;;;1869985;76;21093;-69
2021/04/04 00:56:40;;;;;;;23.00;4.70;;;10.70;91.60;;;;;;1874079;76;21159;-69
2021/04/04 00:59:08;;;;;;;25.55;5.10;;;10.70;91.80;;;;;;1876716;76;21147;-69
2021/04/04 01:01:36;;;;;;;26.75;5.50;;;10.70;91.90;;;;;;1875664;76;21085;-69
2021/04/04 01:04:03;;;;;;;26.93;5.20;;;10.70;92.10;;;;;;1873714;75;21160;-69
2021/04/04 01:06:31;;;;;;;22.17;5.60;;;10.70;92.10;;;;;;1832252;77;21252;-69
2021/04/04 01:08:59;;;;;;;27.75;5.85;;;10.70;92.10;;;;;;1837437;76;21157;-69
2021/04/04 01:12:02;;;;;;;24.30;5.50;;;10.70;92.10;;;;;;1806067;77;21662;-69
2021/04/04 01:14:33;;;;;;;27.75;6.35;;;10.70;92.50;;;;;;1841200;77;21155;-69
2021/04/04 01:17:03;;;;;;;25.97;6.00;;;10.60;92.70;;;;;;1873296;76;21113;-69
2021/04/04 01:19:43;;;;;;;29.57;6.15;;;10.60;92.70;;;;;;1872068;76;21402;-70
2021/04/04 01:22:42;;;;;;;31.05;6.53;;;10.70;92.60;;;;;;1874996;76;21557;-68
2021/04/04 01:25:15;;;;;;;28.83;6.03;;;10.60;92.50;;;;;;1870470;75;21188;-69
2021/04/04 01:27:52;;;;;;;21.85;5.37;;;10.60;92.60;;;;;;1873961;76;21109;-69
2021/04/04 01:30:22;;;;;;;29.10;6.65;;;10.60;92.50;;;;;;1873590;75;21029;-69
2021/04/04 01:32:51;;;;;;;27.50;6.10;;;10.60;92.50;;;;;;1874776;76;21613;-70
2021/04/04 01:35:21;;;;;;;23.77;5.90;;;10.60;92.50;;;;;;1879450;76;21194;-70
2021/04/04 01:37:51;;;;;;;26.73;5.83;;;10.60;92.30;;;;;;1879452;75;21065;-69
2021/04/04 01:40:20;;;;;;;35.38;6.40;;;10.60;92.20;;;;;;1873372;74;21510;-70
2021/04/04 01:42:50;;;;;;;28.17;5.65;;;10.60;92.20;;;;;;1869350;76;21198;-70
2021/04/04 01:45:19;;;;;;;22.15;4.53;;;10.60;92.60;;;;;;1872549;76;21124;-69
2021/04/04 01:47:47;;;;;;;28.02;5.40;;;10.60;92.20;;;;;;1873580;76;21166;-69
2021/04/04 01:50:15;;;;;;;25.48;6.17;;;10.60;92.10;;;;;;1870225;76;21214;-69
2021/04/04 01:52:44;;;;;;;24.32;5.25;;;10.60;92.10;;;;;;1872418;76;21187;-69
2021/04/04 01:55:13;;;;;;;26.73;5.42;;;10.60;91.90;;;;;;1872860;76;21062;-69
2021/04/04 01:57:42;;;;;;;26.65;5.10;;;10.60;91.80;;;;;;1874673;75;21104;-68
2021/04/04 02:00:16;;;;;;;26.73;5.35;;;10.60;91.70;;;;;;1879594;76;21202;-69
2021/04/04 02:02:48;;;;;;;26.90;5.40;;;10.60;91.80;;;;;;1875206;76;21207;-69
2021/04/04 02:05:17;;;;;;;26.30;5.70;;;10.60;91.80;;;;;;1879068;76;21178;-68
2021/04/04 02:07:48;;;;;;;23.22;5.00;;;10.60;91.90;;;;;;1877136;75;21194;-69
2021/04/04 02:10:19;;;;;;;23.15;5.00;;;10.60;91.90;;;;;;1877536;75;21191;-68
2021/04/04 02:12:46;;;;;;;24.72;4.65;;;10.50;92.30;;;;;;1870728;76;21144;-68
2021/04/04 02:15:16;;;;;;;23.60;4.95;;;10.50;91.90;;;;;;1874772;76;21080;-68
2021/04/04 02:17:47;;;;;;;22.60;4.58;;;10.50;91.90;;;;;;1877196;75;21568;-69
2021/04/04 02:20:17;;;;;;;23.20;4.75;;;10.60;92.00;;;;;;1873528;76;21104;-69
2021/04/04 02:22:46;;;;;;;20.70;4.92;;;10.50;91.70;;;;;;1881455;76;21131;-68
2021/04/04 02:25:15;;;;;;;25.72;5.20;;;10.60;91.60;;;;;;1882286;76;21609;-69
2021/04/04 02:27:44;;;;;;;24.57;4.70;;;10.60;91.70;;;;;;1877518;76;21041;-69
2021/04/04 02:30:15;;;;;;;19.40;4.30;;;10.60;91.80;;;;;;1875084;75;21138;-69
2021/04/04 02:33:00;;;;;;;25.62;5.22;;;10.60;91.90;;;;;;1876713;75;21068;-68
2021/04/04 02:35:37;;;;;;;24.90;5.00;;;10.60;92.30;;;;;;1872725;76;21033;-68
2021/04/04 02:38:10;;;;;;;20.68;4.33;;;10.60;92.00;;;;;;1872564;76;21159;-70
2021/04/04 02:40:40;;;;;;;29.18;6.10;;;10.60;91.90;;;;;;1872832;75;21125;-69
2021/04/04 02:43:10;;;;;;;23.35;4.55;;;10.50;92.30;;;;;;1871520;76;21506;-68
2021/04/04 02:45:38;;;;;;;31.15;5.47;;;10.50;92.30;;;;;;1874396;75;21206;-68
2021/04/04 02:48:09;;;;;;;20.90;5.08;;;10.50;92.10;;;;;;1872371;76;21100;-68
2021/04/04 02:50:38;;;;;;;28.90;4.90;;;10.50;92.20;;;;;;1877132;75;21384;-68
2021/04/04 02:53:08;;;;;;;28.42;6.47;;;10.50;92.10;;;;;;1874809;76;21132;-68
2021/04/04 02:55:38;;;;;;;19.98;5.10;;;10.50;92.30;;;;;;1885685;75;21225;-68
2021/04/04 02:58:07;;;;;;;22.40;5.65;;;10.50;91.80;;;;;;1878245;74;21613;-68
2021/04/04 03:00:38;;;;;;;18.45;4.28;;;10.50;91.90;;;;;;1881654;75;21153;-68
2021/04/04 03:03:08;;;;;;;22.77;5.45;;;10.50;91.90;;;;;;1875412;76;21149;-68
2021/04/04 03:05:36;;;;;;;33.42;6.05;;;10.50;91.80;;;;;;1876616;76;21606;-68
2021/04/04 03:08:06;;;;;;;24.82;5.95;;;10.50;92.10;;;;;;1875904;76;21213;-68
2021/04/04 03:10:35;;;;;;;23.20;5.42;;;10.40;92.30;;;;;;1877004;76;21131;-68
2021/04/04 03:13:03;;;;;;;25.65;5.78;;;10.40;92.00;;;;;;1876637;75;21089;-68
2021/04/04 03:15:32;;;;;;;20.60;4.75;;;10.40;92.00;;;;;;1874695;75;21053;-68
2021/04/04 03:18:00;;;;;;;23.65;4.92;;;10.40;92.00;;;;;;1877066;76;21108;-68
2021/04/04 03:20:28;;;;;;;29.77;5.80;;;10.40;91.90;;;;;;1875507;76;21171;-68
2021/04/04 03:22:57;;;;;;;22.22;4.92;;;10.40;91.90;;;;;;1875750;76;21153;-69
2021/04/04 03:25:27;;;;;;;21.68;5.15;;;10.40;92.40;;;;;;1873229;76;21092;-69
2021/04/04 03:27:56;;;;;;;25.48;5.15;;;10.40;92.20;;;;;;1880157;76;21123;-69
2021/04/04 03:30:42;;;;;;;23.00;5.80;;;10.40;92.30;;;;;;1879931;75;21637;-69
2021/04/04 03:33:07;;;;;;;28.85;5.12;;;10.40;91.70;;;;;;1873557;74;21152;-69
2021/04/04 03:35:35;;;;;;;22.40;5.08;;;10.30;91.70;;;;;;1876104;75;21171;-69
2021/04/04 03:38:04;;;;;;;22.40;4.67;;;10.30;91.70;;;;;;1877813;75;21084;-68
2021/04/04 03:40:32;;;;;;;22.22;5.15;;;10.30;91.70;;;;;;1833977;77;21108;-69
2021/04/04 03:43:02;;;;;;;21.57;4.30;;;10.40;91.60;;;;;;1839509;76;21135;-69
2021/04/04 03:45:30;;;;;;;16.82;4.15;;;10.30;91.60;;;;;;1801159;78;22100;-69
2021/04/04 03:47:59;;;;;;;25.45;4.85;;;10.30;91.70;;;;;;1878991;75;21164;-69
2021/04/04 03:50:26;;;;;;;23.38;4.95;;;10.30;91.40;;;;;;1877189;76;21563;-69
2021/04/04 03:52:54;;;;;;;22.67;4.70;;;10.30;91.60;;;;;;1875126;76;21615;-69
2021/04/04 03:55:24;;;;;;;25.37;4.15;;;10.30;91.60;;;;;;1878287;76;21549;-69
2021/04/04 03:57:53;;;;;;;23.27;4.37;;;10.30;91.50;;;;;;1872118;76;21104;-69
2021/04/04 04:00:23;;;;;;;26.35;4.67;;;10.30;91.70;;;;;;1873881;75;21092;-68
2021/04/04 04:02:51;;;;;;;18.95;3.92;;;10.30;91.80;;;;;;1874032;76;21508;-68
2021/04/04 04:05:23;;;;;;;15.70;4.40;;;10.30;91.50;;;;;;1884698;74;21148;-68
2021/04/04 04:07:52;;;;;;;23.07;4.53;;;10.30;91.40;;;;;;1876219;76;21606;-68
2021/04/04 04:10:20;;;;;;;22.55;4.25;;;10.30;91.40;;;;;;1876215;76;21095;-68
2021/04/04 04:12:48;;;;;;;16.27;4.37;;;10.30;91.70;;;;;;1879353;75;21186;-69
2021/04/04 04:15:17;;;;;;;18.75;4.17;;;10.30;91.70;;;;;;1871987;76;21118;-69
2021/04/04 04:17:47;;;;;;;25.08;4.35;;;10.30;91.60;;;;;;1877366;75;21093;-69
2021/04/04 04:20:16;;;;;;;16.23;4.00;;;10.30;91.60;;;;;;1875170;75;21115;-69
2021/04/04 04:22:44;;;;;;;18.77;3.92;;;10.30;91.70;;;;;;1875171;74;21144;-68
2021/04/04 04:25:12;;;;;;;20.88;3.83;;;10.30;91.60;;;;;;1879386;75;21100;-68
2021/04/04 04:27:42;;;;;;;17.50;4.00;;;10.40;91.50;;;;;;1877230;76;21166;-69
2021/04/04 04:30:13;;;;;;;18.95;4.08;;;10.40;91.90;;;;;;1880712;75;21188;-68
2021/04/04 04:32:42;;;;;;;21.60;4.00;;;10.30;91.70;;;;;;1874035;75;21175;-69
2021/04/04 04:35:10;;;;;;;19.73;3.80;;;10.30;91.80;;;;;;1879869;76;21119;-70
2021/04/04 04:37:40;;;;;;;15.98;3.95;;;10.30;92.20;;;;;;1873464;76;21140;-70
2021/04/04 04:40:10;;;;;;;20.15;3.77;;;10.30;92.10;;;;;;1876887;76;21144;-69
2021/04/04 04:42:42;;;;;;;20.10;4.50;;;10.30;92.30;;;;;;1880669;76;21176;-69
2021/04/04 04:45:13;;;;;;;;;;;10.20;92.60;;;;;;1876467;76;21155;-69
2021/04/04 04:47:42;;;;;;;19.30;3.67;;;10.20;93.10;;;;;;1874298;75;20209;-69
2021/04/04 04:50:10;;;;;;;17.95;3.80;;;10.20;93.30;;;;;;1880812;76;21100;-70
2021/04/04 04:52:38;;;;;;;17.40;3.85;;;10.20;93.40;;;;;;1872340;74;21180;-69
2021/04/04 04:55:08;;;;;;;17.25;4.10;;;10.30;93.50;;;;;;1880278;76;21503;-69
2021/04/04 04:57:37;;;;;;;18.25;4.87;;;10.30;93.80;;;;;;1871269;75;21986;-69
2021/04/04 05:00:07;;;;;;;14.20;4.33;;;10.30;94.10;;;;;;1882595;76;21089;-69
2021/04/04 05:02:38;;;;;;;16.20;4.15;;;10.30;94.80;;;;;;1879479;76;21591;-69
2021/04/04 05:05:07;;;;;;;21.25;4.35;;;10.20;94.60;;;;;;1878666;75;21459;-69
2021/04/04 05:07:39;;;;;;;18.80;4.12;;;10.20;94.70;;;;;;1869565;76;21391;-69
2021/04/04 05:10:12;;;;;;;19.77;4.40;;;10.20;94.80;;;;;;1879692;76;21079;-68
2021/04/04 05:12:45;;;;;;;17.70;4.15;;;10.20;95.10;;;;;;1870681;76;21563;-68
2021/04/04 05:15:13;;;;;;;19.55;3.98;;;10.10;95.20;;;;;;1877167;76;21076;-68
2021/04/04 05:17:41;;;;;;;19.27;4.42;;;10.20;95.10;;;;;;1877592;76;21033;-71
2021/04/04 05:20:09;;;;;;;18.57;3.90;;;10.10;95.00;;;;;;1879317;75;21619;-69
2021/04/04 05:22:39;;;;;;;19.57;4.33;;;10.20;95.10;;;;;;1880834;76;21069;-69
2021/04/04 05:25:08;;;;;;;17.30;3.77;;;10.20;95.10;;;;;;1874625;76;21034;-68
2021/04/04 05:27:35;;;;;;;18.30;4.72;;;10.20;95.20;;;;;;1875114;76;21030;-69
2021/04/04 05:30:10;;;;;;;19.17;4.20;;;10.20;94.90;;;;;;1873132;76;21077;-69
2021/04/04 05:32:37;;;;;;;16.32;3.90;;;10.20;95.00;;;;;;1874398;76;21152;-69
2021/04/04 05:35:07;;;;;;;16.87;3.85;;;10.10;94.70;;;;;;1878704;75;22164;-69
2021/04/04 05:37:35;;;;;;;16.67;3.72;;;10.10;94.80;;;;;;1882248;75;21093;-69
2021/04/04 05:40:03;;;;;;;14.68;3.55;;;10.10;94.70;;;;;;1876019;75;21088;-68
2021/04/04 05:42:33;;;;;;;15.32;3.55;;;10.20;94.70;;;;;;1872042;76;21177;-69
2021/04/04 05:45:06;;;;;;;19.20;3.80;;;10.20;94.80;;;;;;1876617;75;21627;-70
2021/04/04 05:47:50;;;;;;;16.15;3.62;;;10.20;94.80;;;;;;1873990;76;21058;-69
2021/04/04 05:50:27;;;;;;;12.78;3.45;;;10.10;95.00;;;;;;1869601;76;21128;-69
2021/04/04 05:53:00;;;;;;;13.35;3.55;;;10.00;95.20;;;;;;1880312;75;21107;-71
2021/04/04 05:55:39;;;;;;;16.52;3.62;;;10.10;95.50;;;;;;1880814;74;21155;-70
2021/04/04 05:58:13;;;;;;;16.40;4.05;;;10.10;95.80;;;;;;1875013;75;21128;-68
2021/04/04 06:00:43;;;;;;;19.35;4.50;;;10.10;96.40;;;;;;1874191;76;21176;-68
2021/04/04 06:03:19;;;;;;;17.15;4.22;;;9.90;96.50;;;;;;1878295;75;21186;-68
2021/04/04 06:05:58;;;;;;;13.13;3.75;;;9.80;96.90;;;;;;1879516;75;21116;-70
2021/04/04 06:09:03;;;;;;;14.70;3.67;;;9.80;97.20;;;;;;1882698;74;21156;-70
2021/04/04 06:11:51;;;;;;;14.23;3.87;;;9.70;97.80;;;;;;1883590;74;21186;-69
2021/04/04 06:14:30;;;;;;;17.70;4.37;;;9.80;98.20;;;;;;1885526;74;21097;-69
2021/04/04 06:17:09;;;;;;;19.60;4.17;;;9.80;98.30;;;;;;1873047;76;21621;-69
2021/04/04 06:20:06;;;;;;;16.67;3.67;;;9.80;98.60;;;;;;1869503;76;21085;-69
2021/04/04 06:22:36;;;;;;;21.42;4.50;;;9.80;99.10;;;;;;1876136;75;21128;-70
2021/04/04 06:25:13;;;;;;;19.67;4.42;;;9.70;99.90;;;;;;1877328;76;21365;-70
2021/04/04 06:27:43;;;;;;;17.48;5.05;;;9.80;99.90;;;;;;1882752;74;21575;-70
2021/04/04 06:33:05;;;;;;;22.25;4.90;;;9.80;99.90;;;;;;1869844;74;21662;-70
2021/04/04 06:35:45;;;;;;;22.58;4.72;;;9.80;99.90;;;;;;1871519;76;21241;-69
2021/04/04 06:38:36;;;;;;;15.53;4.87;;;9.80;99.90;;;;;;1879618;74;21167;-69
2021/04/04 06:41:22;;;;;;;19.17;5.50;;;9.80;99.90;;;;;;1882083;74;21719;-70
2021/04/04 06:44:07;;;;;;;18.98;5.17;;;9.80;99.90;;;;;;1881946;74;22138;-68
2021/04/04 06:46:46;;;;;;;19.67;4.83;;;9.80;99.90;;;;;;1881697;74;21520;-68
2021/04/04 06:49:37;;;;;;;22.15;5.30;;;9.80;99.90;;;;;;1881661;76;21094;-68
2021/04/04 06:52:25;;;;;;;20.52;5.25;;;9.80;99.90;;;;;;1881344;74;21137;-68
2021/04/04 06:55:10;;;;;;;20.57;5.15;;;9.80;99.90;;;;;;1882896;74;21105;-68
2021/04/04 06:57:49;;;;;;;17.65;5.83;;;9.80;99.90;;;;;;1880132;76;21391;-67
2021/04/04 07:00:25;;;;;;;23.40;6.90;;;9.80;99.90;;;;;;1882650;76;22140;-70
2021/04/04 07:03:11;;;;;;;23.22;7.50;;;9.70;99.90;;;;;;1882993;75;21143;-69
2021/04/04 07:06:00;;;;;;;22.32;7.35;;;9.70;99.90;;;;;;1880699;74;21156;-70
2021/04/04 07:08:47;;;;;;;19.02;6.65;;;9.70;99.90;;;;;;1882276;76;21085;-68
2021/04/04 07:11:39;;;;;;;16.32;5.87;;;9.80;99.90;;;;;;1887262;74;21121;-70
2021/04/04 07:14:42;;;;;;;22.90;6.85;;;9.80;99.90;;;;;;1881966;75;21240;-70
2021/04/04 07:17:24;;;;;;;23.12;6.87;;;9.80;99.90;;;;;;1882124;76;21163;-70
2021/04/04 07:19:52;;;;;;;;;;;9.70;99.90;;;;;;1888260;74;21721;-70
2021/04/04 07:22:23;;;;;;;23.47;6.95;;;9.70;99.90;;;;;;1880292;75;20191;-69
2021/04/04 07:25:10;;;;;;;19.17;6.67;;;9.80;99.90;;;;;;1879674;75;21165;-70
2021/04/04 07:28:12;;;;;;;17.37;5.87;;;9.80;99.90;;;;;;1878997;74;21439;-69
2021/04/04 07:30:49;;;;;;;22.50;6.78;;;9.80;99.90;;;;;;1880166;75;21506;-69
2021/04/04 07:33:25;;;;;;;20.92;6.25;;;9.80;99.90;;;;;;1884741;74;21381;-68
2021/04/04 07:36:32;;;;;;;18.27;6.90;;;9.80;99.90;;;;;;1875816;75;21546;-69
2021/04/04 07:39:31;;;;;;;20.72;7.10;;;9.80;99.90;;;;;;1875252;74;21015;-69
2021/04/04 07:42:36;;;;;;;23.10;6.78;;;9.80;99.90;;;;;;1878894;76;21554;-69
2021/04/04 07:45:19;;;;;;;25.62;7.10;;;9.80;99.90;;;;;;1881384;73;21650;-70
2021/04/04 07:47:55;;;;;;;20.62;6.97;;;9.80;99.90;;;;;;1841883;74;21113;-69
2021/04/04 07:50:28;;;;;;;21.35;8.20;;;9.90;99.90;;;;;;1882751;74;21629;-70
2021/04/04 07:53:10;;;;;;;27.45;7.70;;;9.90;99.90;;;;;;1875064;76;21072;-71
2021/04/04 07:56:01;;;;;;;21.80;7.67;;;9.80;99.90;;;;;;1862426;76;21112;-70
2021/04/04 07:58:40;;;;;;;25.08;7.12;;;9.70;99.90;;;;;;1862030;74;21187;-70
2021/04/04 08:01:17;;;;;;;22.35;7.72;;;9.70;99.90;;;;;;1877364;74;21049;-70
2021/04/04 08:04:11;;;;;;;25.23;7.97;;;9.90;99.90;;;;;;1878642;74;21155;-70
2021/04/04 08:06:48;;;;;;;18.07;7.53;;;10.00;99.90;;;;;;1819824;77;21155;-69
2021/04/04 08:09:37;;;;;;;17.85;7.08;;;9.90;99.90;;;;;;1806873;77;21124;-70
2021/04/04 08:12:26;;;;;;;22.40;7.87;;;9.90;99.90;;;;;;1812571;77;21109;-70
2021/04/04 08:14:59;;;;;;;22.58;8.13;;;10.00;99.90;;;;;;1850771;76;21166;-70
2021/04/04 08:17:27;;;;;;;19.02;7.60;;;10.00;99.90;;;;;;1852360;76;21435;-70
2021/04/04 08:20:03;;;;;;;21.82;8.33;;;10.00;99.90;;;;;;1851561;76;21150;-70
2021/04/04 08:22:33;;;;;;;26.48;8.20;;;10.00;99.90;;;;;;1855524;76;21211;-70
2021/04/04 08:25:07;;;;;;;20.65;7.45;;;10.10;99.90;;;;;;1837510;76;21122;-70
2021/04/04 08:27:38;;;;;;;18.77;7.25;;;10.10;99.90;;;;;;1826138;76;21600;-70
2021/04/04 08:30:20;;;;;;;17.70;8.20;;;10.20;99.90;;;;;;1842613;76;21304;-69
2021/04/04 08:33:08;;;;;;;23.85;8.25;;;10.10;99.90;;;;;;1842889;76;21141;-70
2021/04/04 08:35:39;;;;;;;17.45;6.72;;;10.20;99.90;;;;;;1896440;74;21087;-65
2021/04/04 08:38:18;;;;;;;24.87;7.78;;;10.20;99.90;;;;;;1898439;74;21058;-66
2021/04/04 08:40:47;;;;;;;19.32;7.95;;;10.20;99.90;;;;;;1887352;74;21630;-69
2021/04/04 08:43:16;;;;;;;17.70;8.00;;;10.20;99.90;;;;;;1898393;75;21074;-66
2021/04/04 08:46:15;;;;;;;19.82;7.55;;;10.20;99.90;;;;;;1900800;75;21031;-66
2021/04/04 08:48:41;;;;;;;19.60;7.37;;;10.20;99.90;;;;;;1898230;74;21074;-68
2021/04/04 08:51:12;;;;;;;21.55;7.50;;;10.20;99.90;;;;;;1898515;75;21540;-66
2021/04/04 08:53:43;;;;;;;25.05;7.65;;;10.20;99.90;;;;;;1901260;75;21094;-67
2021/04/04 08:56:12;;;;;;;25.45;7.90;;;10.30;99.90;;;;;;1901358;75;22437;-67
2021/04/04 08:58:45;;;;;;;22.65;7.75;;;10.30;99.90;;;;;;1899348;75;21606;-67
2021/04/04 09:01:21;;;;;;;19.65;6.90;;;10.40;99.90;;;;;;1898592;75;21556;-66
2021/04/04 09:03:52;;;;;;;24.27;7.72;;;10.40;99.90;;;;;;1893208;74;21126;-66
2021/04/04 09:06:20;;;;;;;17.00;7.00;;;10.40;99.90;;;;;;1899862;75;21417;-66
2021/04/04 09:08:49;;;;;;;20.02;7.65;;;10.30;99.90;;;;;;1901186;75;21129;-67
2021/04/04 09:11:18;;;;;;;21.07;7.47;;;10.30;99.90;;;;;;1898081;75;21145;-68
2021/04/04 09:13:46;;;;;;;17.50;6.97;;;10.30;99.90;;;;;;1896754;75;21257;-68
2021/04/04 09:16:15;;;;;;;22.48;7.53;;;10.40;99.90;;;;;;1901079;75;21137;-68
2021/04/04 09:18:49;;;;;;;17.40;7.45;;;10.40;99.90;;;;;;1900146;75;21090;-69
2021/04/04 09:21:18;;;;;;;17.90;7.45;;;10.40;99.90;;;;;;1895502;74;22129;-67
2021/04/04 09:23:48;;;;;;;23.38;7.70;;;10.40;99.90;;;;;;1896188;75;21180;-66
2021/04/04 09:26:19;;;;;;;18.82;7.25;;;10.40;99.60;;;;;;1898077;75;21562;-66
2021/04/04 09:28:48;;;;;;;20.23;6.97;;;10.40;99.90;;;;;;1896878;74;21094;-66
2021/04/04 09:31:27;;;;;;;20.25;7.20;;;10.40;99.90;;;;;;1899041;75;21185;-66
2021/04/04 09:34:04;;;;;;;17.75;7.20;;;10.40;99.70;;;;;;1898557;75;21609;-68
2021/04/04 09:36:43;;;;;;;24.23;7.40;;;10.40;99.70;;;;;;1897907;75;21026;-67
2021/04/04 09:39:12;;;;;;;19.10;7.33;;;10.50;99.60;;;;;;1898799;75;21180;-67
2021/04/04 09:41:41;;;;;;;21.35;7.33;;;10.40;99.20;;;;;;1896034;75;21098;-68
2021/04/04 09:44:10;;;;;;;22.05;6.67;;;10.40;99.00;;;;;;1898577;75;21130;-68
2021/04/04 09:46:52;;;;;;;27.32;6.67;;;10.40;98.70;;;;;;1897020;74;21046;-67
2021/04/04 09:49:42;;;;;;;13.15;6.03;;;10.50;98.60;;;;;;1898308;75;21090;-67
2021/04/04 09:52:27;;;;;;;17.30;5.90;;;10.40;98.20;;;;;;1893510;74;21341;-66
2021/04/04 09:55:01;;;;;;;17.15;6.33;;;10.50;98.70;;;;;;1895991;74;21179;-66
2021/04/04 09:57:29;;;;;;;18.52;6.15;;;10.50;98.50;;;;;;1896301;75;21093;-67
2021/04/04 09:59:57;;;;;;;18.45;5.95;;;10.60;98.70;;;;;;1897443;74;21062;-67
2021/04/04 10:02:35;;;;;;;15.18;6.12;;;10.60;98.00;;;;;;1896782;75;22170;-68
2021/04/04 10:05:04;;;;;;;18.75;6.05;;;10.60;97.90;;;;;;1902524;75;21114;-67
2021/04/04 10:07:33;;;;;;;15.95;5.40;;;10.60;97.40;;;;;;1899612;75;21113;-67
2021/04/04 10:10:01;;;;;;;16.20;5.60;;;10.60;97.20;;;;;;1901298;75;21505;-67
2021/04/04 10:12:29;;;;;;;17.17;6.45;;;10.70;97.30;;;;;;1897732;75;21124;-67
2021/04/04 10:15:05;;;;;;;14.63;5.30;;;10.60;96.90;;;;;;1897596;74;21117;-66
2021/04/04 10:17:34;;;;;;;14.68;6.05;;;10.60;97.20;;;;;;1895373;74;21563;-67
2021/04/04 10:20:05;;;;;;;20.10;6.40;;;10.60;97.40;;;;;;1897750;74;21711;-67
2021/04/04 10:22:49;;;;;;;13.18;5.28;;;10.60;97.30;;;;;;1899716;75;21077;-67
2021/04/04 10:25:18;;;;;;;14.78;5.17;;;10.70;97.00;;;;;;1898974;75;21130;-67
2021/04/04 10:27:47;;;;;;;19.55;5.40;;;10.70;97.10;;;;;;1903379;73;21143;-66
2021/04/04 10:30:17;;;;;;;17.70;5.75;;;10.60;96.90;;;;;;1899866;73;21588;-67
2021/04/04 10:32:47;;;;;;;14.50;5.08;;;10.70;97.40;;;;;;1897676;75;21167;-67
2021/04/04 10:35:30;;;;;;;19.62;5.72;;;10.80;97.00;;;;;;1897913;74;21261;-67
2021/04/04 10:38:06;;;;;;;15.20;4.87;;;10.80;96.60;;;;;;1899619;73;21579;-67
2021/04/04 10:40:56;;;;;;;13.55;5.30;;;10.80;96.40;;;;;;1897523;75;21164;-67
2021/04/04 10:43:38;;;;;;;13.55;4.37;;;10.90;96.40;;;;;;1898061;75;21059;-67
2021/04/04 10:46:11;;;;;;;16.62;4.97;;;10.90;96.50;;;;;;1899430;73;21088;-67
2021/04/04 10:48:41;;;;;;;15.05;4.28;;;11.00;96.30;;;;;;1900082;75;21183;-67
2021/04/04 10:51:11;;;;;;;17.87;5.22;;;11.00;96.10;;;;;;1897093;73;21105;-66
2021/04/04 10:53:39;;;;;;;14.65;4.92;;;11.00;95.70;;;;;;1897808;75;21118;-65
2021/04/04 10:56:08;;;;;;;16.67;4.83;;;11.10;96.00;;;;;;1900795;73;21662;-66
2021/04/04 10:58:37;;;;;;;17.90;4.50;;;11.10;95.70;;;;;;1902433;75;21070;-67
2021/04/04 11:01:06;;;;;;;12.33;3.58;;;11.20;95.50;;;;;;1903018;74;21156;-67
2021/04/04 11:03:35;;;;;;;15.08;3.95;;;11.20;95.90;;;;;;1899073;75;21191;-67
2021/04/04 11:06:02;;;;;;;16.07;5.03;;;11.20;96.00;;;;;;1899312;75;21124;-67
2021/04/04 11:08:30;;;;;;;10.98;4.00;;;11.20;96.10;;;;;;1896147;75;21164;-67
2021/04/04 11:10:58;;;;;;;13.60;5.15;;;11.30;96.10;;;;;;1895806;75;21195;-67
2021/04/04 11:13:26;;;;;;;15.98;4.65;;;11.30;96.10;;;;;;1899520;74;21199;-67
2021/04/04 11:15:59;;;;;;;15.60;4.33;;;11.20;95.80;;;;;;1903256;75;21102;-67
2021/04/04 11:18:38;;;;;;;19.67;4.95;;;11.30;95.80;;;;;;1901392;75;21187;-65
2021/04/04 11:21:23;;;;;;;19.23;5.05;;;11.20;96.30;;;;;;1896584;75;21103;-67
2021/04/04 11:23:51;;;;;;;15.15;5.20;;;11.20;95.90;;;;;;1898128;75;21139;-66
2021/04/04 11:26:35;;;;;;;13.70;4.95;;;11.10;96.30;;;;;;1898946;75;21047;-66
2021/04/04 11:29:10;;;;;;;20.40;4.37;;;11.00;96.30;;;;;;1897732;75;21030;-69
2021/04/04 11:31:40;;;;;;;13.00;4.50;;;11.00;96.60;;;;;;1898359;75;21465;-69
2021/04/04 11:34:26;;;;;;;22.60;5.47;;;11.20;96.60;;;;;;1895962;75;21578;-68
2021/04/04 11:36:55;;;;;;;15.70;5.20;;;11.20;96.20;;;;;;1905562;73;21768;-65
2021/04/04 11:39:23;;;;;;;14.87;4.65;;;11.20;96.30;;;;;;1896805;75;21102;-67
2021/04/04 11:41:56;;;;;;;17.87;4.62;;;11.10;96.70;;;;;;1904103;74;21626;-67
2021/04/04 11:44:32;;;;;;;16.37;4.22;;;11.10;96.50;;;;;;1897820;75;21129;-67
2021/04/04 11:47:04;;;;;;;14.78;4.33;;;11.20;96.10;;;;;;1899550;73;21102;-67
2021/04/04 11:49:40;;;;;;;18.20;5.87;;;11.00;96.20;;;;;;1893419;75;21575;-66
2021/04/04 11:52:14;;;;;;;15.78;5.28;;;10.90;96.30;;;;;;1896839;73;21214;-66
2021/04/04 11:54:49;;;;;;;20.62;6.62;;;11.00;96.40;;;;;;1899376;75;21094;-66
2021/04/04 11:57:31;;;;;;;20.25;5.95;;;11.00;96.40;;;;;;1900577;75;21062;-66
2021/04/04 12:00:04;;;;;;;16.10;6.45;;;10.90;96.60;;;;;;1894374;75;21066;-68
2021/04/04 12:02:34;;;;;;;16.85;5.72;;;11.00;96.70;;;;;;1898498;75;21099;-67
2021/04/04 12:05:10;;;;;;;14.47;5.75;;;10.90;96.80;;;;;;1863277;76;21589;-67
2021/04/04 12:07:45;;;;;;;13.38;5.62;;;11.00;96.50;;;;;;1867305;76;21519;-66
2021/04/04 12:10:15;;;;;;;15.72;5.72;;;11.10;96.70;;;;;;1862162;76;21114;-67
2021/04/04 12:12:43;;;;;;;21.02;6.35;;;11.20;96.60;;;;;;1867495;76;21067;-67
2021/04/04 12:15:13;;;;;;;16.42;6.22;;;11.20;96.60;;;;;;1865382;76;21147;-68
2021/04/04 12:17:46;;;;;;;20.08;6.00;;;11.20;96.50;;;;;;1861839;74;21115;-66
2021/04/04 12:20:14;;;;;;;15.58;6.37;;;11.20;96.60;;;;;;1833832;76;21109;-66
2021/04/04 12:22:46;;;;;;;18.67;6.70;;;11.30;96.60;;;;;;1833021;77;21095;-66
2021/04/04 12:25:17;;;;;;;20.77;6.72;;;11.30;96.40;;;;;;1864193;76;21143;-67
2021/04/04 12:27:46;;;;;;;17.00;6.20;;;11.30;96.40;;;;;;1867323;75;21110;-66
2021/04/04 12:30:32;;;;;;;19.07;6.15;;;11.40;96.50;;;;;;1868094;76;21146;-67
2021/04/04 12:33:08;;;;;;;21.07;6.30;;;11.40;96.90;;;;;;1831382;77;21569;-66
2021/04/04 12:35:45;;;;;;;18.12;6.00;;;11.40;96.30;;;;;;1899814;73;21671;-67
2021/04/04 12:38:29;;;;;;;17.20;6.40;;;11.40;96.40;;;;;;1900089;75;21104;-66
2021/04/04 12:40:59;;;;;;;13.60;5.90;;;11.40;96.50;;;;;;1896122;75;21143;-65
2021/04/04 12:43:27;;;;;;;21.57;6.40;;;11.40;96.80;;;;;;1900744;75;21173;-67
2021/04/04 12:45:54;;;;;;;17.90;5.80;;;11.40;96.70;;;;;;1900366;75;21113;-66
2021/04/04 12:48:24;;;;;;;20.77;6.95;;;11.40;96.70;;;;;;1900750;73;21207;-66
2021/04/04 12:50:57;;;;;;;17.55;5.45;;;11.40;96.80;;;;;;1898981;75;21502;-68
2021/04/04 12:53:30;;;;;;;15.48;5.42;;;11.40;97.00;;;;;;1894860;75;21164;-68
2021/04/04 12:55:58;;;;;;;17.65;5.20;;;11.40;96.90;;;;;;1900846;73;21559;-68
2021/04/04 12:58:31;;;;;;;14.50;5.03;;;11.50;96.70;;;;;;1899806;74;21211;-66
2021/04/04 13:00:59;;;;;;;18.12;5.10;;;11.50;96.80;;;;;;1900841;73;21075;-67
2021/04/04 13:03:32;;;;;;;19.00;4.90;;;11.50;96.70;;;;;;1898901;74;21074;-67
2021/04/04 13:06:00;;;;;;;14.68;4.72;;;11.50;96.60;;;;;;1900037;73;21124;-66
2021/04/04 13:08:33;;;;;;;19.12;5.10;;;11.50;96.60;;;;;;1903315;75;21036;-66
2021/04/04 13:11:04;;;;;;;15.75;4.45;;;11.40;96.60;;;;;;1900607;73;21109;-65